createdAt,value
2022-08-03T00:02:36.374Z,1.40
2022-08-03T00:05:40.135Z,1.57
2022-08-03T00:09:05.141Z,1.37
2022-08-03T00:12:08.740Z,1.40
2022-08-03T00:15:16.498Z,1.77
2022-08-03T00:18:20.255Z,1.37
2022-08-03T00:21:23.407Z,1.20
2022-08-03T00:24:28.002Z,1.33
2022-08-03T00:27:32.657Z,1.50
2022-08-03T00:30:37.263Z,1.67
2022-08-03T00:33:59.720Z,1.40
2022-08-03T00:37:05.972Z,1.40
2022-08-03T00:40:13.750Z,1.60
2022-08-03T00:43:19.548Z,1.40
2022-08-03T00:46:23.042Z,1.90
2022-08-03T00:49:26.242Z,1.73
2022-08-03T00:52:29.436Z,1.97
2022-08-03T00:55:34.858Z,2.37
2022-08-03T00:58:38.670Z,2.20
2022-08-03T01:01:41.852Z,2.10
2022-08-03T01:04:44.983Z,2.33
2022-08-03T01:08:00.203Z,2.37
2022-08-03T01:11:13.416Z,2.60
2022-08-03T01:14:22.631Z,2.30
2022-08-03T01:17:38.209Z,2.83
2022-08-03T01:20:45.736Z,2.37
2022-08-03T01:24:04.103Z,2.50
2022-08-03T01:27:12.130Z,2.70
2022-08-03T01:30:16.925Z,2.60
2022-08-03T01:33:23.961Z,2.10
2022-08-03T01:36:33.888Z,2.37
2022-08-03T01:39:39.816Z,2.33
2022-08-03T01:42:45.517Z,2.47
2022-08-03T01:45:51.033Z,2.30
2022-08-03T01:48:55.078Z,2.30
2022-08-03T01:52:04.086Z,2.30
2022-08-03T01:55:10.990Z,2.50
2022-08-03T01:58:16.378Z,2.40
2022-08-03T02:01:22.954Z,2.40
2022-08-03T02:04:29.097Z,2.40
2022-08-03T02:07:34.327Z,2.63
2022-08-03T02:10:38.937Z,2.60
2022-08-03T02:13:42.986Z,3.20
2022-08-03T02:16:50.408Z,2.30
2022-08-03T02:19:55.100Z,2.10
2022-08-03T02:22:58.401Z,2.20
2022-08-03T02:26:05.765Z,2.10
2022-08-03T02:29:15.058Z,1.80
2022-08-03T02:32:25.520Z,1.90
2022-08-03T02:35:31.916Z,1.87
2022-08-03T02:38:37.974Z,1.77
2022-08-03T02:41:46.509Z,1.50
2022-08-03T02:44:54.591Z,1.90
2022-08-03T02:48:04.058Z,1.60
2022-08-03T02:51:07.403Z,1.40
2022-08-03T02:54:12.001Z,1.80
2022-08-03T02:57:16.490Z,2.30
2022-08-03T03:00:28.466Z,2.10
2022-08-03T03:03:39.997Z,3.33
2022-08-03T03:06:49.529Z,3.40
2022-08-03T03:09:53.662Z,2.40
2022-08-03T03:12:59.068Z,3.27
2022-08-03T03:16:05.067Z,3.40
2022-08-03T03:19:11.429Z,3.13
2022-08-03T03:22:16.439Z,2.80
2022-08-03T03:25:21.477Z,3.50
2022-08-03T03:28:25.470Z,4.43
2022-08-03T03:31:28.830Z,5.77
2022-08-03T03:34:34.197Z,7.90
2022-08-03T03:37:37.307Z,13.80
2022-08-03T03:40:40.672Z,15.70
2022-08-03T03:43:44.673Z,8.87
2022-08-03T03:46:47.891Z,11.50
2022-08-03T03:49:53.854Z,16.00
2022-08-03T03:52:56.961Z,11.00
2022-08-03T03:56:02.627Z,8.40
2022-08-03T03:59:06.382Z,5.97
2022-08-03T04:02:10.728Z,4.70
2022-08-03T04:05:47.897Z,4.17
2022-08-03T04:09:08.654Z,2.97
2022-08-03T04:12:11.880Z,2.30
2022-08-03T04:15:16.772Z,3.63
2022-08-03T04:18:22.671Z,2.90
2022-08-03T04:21:31.513Z,3.10
2022-08-03T04:24:40.384Z,3.00
2022-08-03T04:27:44.908Z,2.23
2022-08-03T04:31:08.639Z,2.17
2022-08-03T04:34:11.734Z,2.40
2022-08-03T04:37:22.973Z,2.37
2022-08-03T04:40:31.562Z,3.50
2022-08-03T04:43:35.793Z,3.57
2022-08-03T04:46:41.077Z,3.00
2022-08-03T04:49:54.253Z,3.70
2022-08-03T04:52:58.759Z,4.17
2022-08-03T04:56:05.760Z,2.70
2022-08-03T04:59:09.160Z,4.03
2022-08-03T05:02:12.418Z,3.50
2022-08-03T05:05:15.987Z,3.57
2022-08-03T05:08:27.651Z,3.53
2022-08-03T05:11:31.681Z,4.13
2022-08-03T05:14:37.085Z,4.33
2022-08-03T05:17:40.442Z,4.13
2022-08-03T05:20:43.784Z,4.30
2022-08-03T05:23:48.256Z,4.77
2022-08-03T05:26:51.340Z,5.60
2022-08-03T05:29:54.438Z,5.30
2022-08-03T05:32:57.615Z,4.73
2022-08-03T05:36:04.252Z,4.37
2022-08-03T05:39:09.090Z,4.00
2022-08-03T05:42:12.219Z,4.17
2022-08-03T05:45:17.724Z,3.97
2022-08-03T05:48:20.878Z,3.70
2022-08-03T05:51:23.999Z,4.10
2022-08-03T05:54:57.334Z,4.00
2022-08-03T05:57:51.638Z,3.90
2022-08-03T06:00:58.251Z,3.40
2022-08-03T06:04:01.327Z,3.70
2022-08-03T06:07:04.385Z,3.60
2022-08-03T06:10:37.580Z,3.77
2022-08-03T06:13:33.488Z,3.30
2022-08-03T06:16:36.668Z,3.40
2022-08-03T06:19:39.856Z,3.23
2022-08-03T06:22:50.566Z,3.27
2022-08-03T06:25:55.928Z,3.43
2022-08-03T06:28:59.301Z,3.50
2022-08-03T06:32:02.440Z,3.67
2022-08-03T06:35:06.847Z,3.30
2022-08-03T06:38:10.400Z,3.70
2022-08-03T06:41:15.170Z,3.50
2022-08-03T06:44:18.271Z,3.47
2022-08-03T06:47:21.360Z,3.40
2022-08-03T06:50:26.249Z,3.80
2022-08-03T06:53:29.519Z,3.70
2022-08-03T06:56:34.030Z,3.80
2022-08-03T07:00:09.789Z,3.53
2022-08-03T07:03:00.387Z,3.67
2022-08-03T07:06:03.530Z,3.10
2022-08-03T07:09:06.718Z,3.20
2022-08-03T07:12:11.326Z,3.30
2022-08-03T07:15:20.499Z,3.10
2022-08-03T07:18:40.235Z,3.10
2022-08-03T07:21:43.582Z,3.10
2022-08-03T07:24:47.793Z,3.40
2022-08-03T07:27:52.590Z,3.40
2022-08-03T07:30:55.671Z,3.60
2022-08-03T07:33:58.739Z,3.00
2022-08-03T07:37:01.891Z,2.97
2022-08-03T07:40:06.633Z,3.40
2022-08-03T07:43:11.164Z,3.97
2022-08-03T07:46:15.032Z,4.20
2022-08-03T07:49:18.224Z,4.70
2022-08-03T07:52:39.213Z,5.20
2022-08-03T07:55:42.515Z,5.23
2022-08-03T07:58:46.979Z,5.30
2022-08-03T08:01:53.114Z,5.27
2022-08-03T08:04:56.184Z,5.07
2022-08-03T08:07:59.306Z,5.17
2022-08-03T08:11:02.552Z,4.83
2022-08-03T08:14:09.828Z,4.10
2022-08-03T08:17:13.142Z,4.90
2022-08-03T08:20:27.744Z,4.80
2022-08-03T08:23:42.436Z,5.87
2022-08-03T08:26:46.695Z,5.00
2022-08-03T08:29:54.161Z,5.20
2022-08-03T08:32:58.870Z,4.77
2022-08-03T08:36:05.177Z,4.73
2022-08-03T08:39:08.269Z,4.50
2022-08-03T08:42:11.523Z,4.50
2022-08-03T08:45:16.184Z,3.80
2022-08-03T08:48:25.681Z,4.27
2022-08-03T08:51:54.574Z,4.20
2022-08-03T08:55:00.216Z,4.83
2022-08-03T08:58:07.449Z,5.03
2022-08-03T09:01:12.268Z,4.33
2022-08-03T09:04:15.592Z,4.27
2022-08-03T09:07:20.573Z,3.80
2022-08-03T09:10:23.737Z,3.97
2022-08-03T09:13:26.888Z,3.93
2022-08-03T09:16:31.409Z,4.30
2022-08-03T09:19:35.945Z,4.30
2022-08-03T09:22:54.687Z,4.50
2022-08-03T09:26:01.611Z,4.50
2022-08-03T09:29:13.223Z,3.80
2022-08-03T09:32:22.201Z,3.63
2022-08-03T09:35:51.779Z,4.50
2022-08-03T09:39:03.523Z,3.70
2022-08-03T09:42:08.666Z,4.33
2022-08-03T09:45:28.087Z,4.93
2022-08-03T09:48:35.072Z,4.00
2022-08-03T09:52:32.734Z,4.20
2022-08-03T09:55:02.887Z,3.50
2022-08-03T09:58:09.578Z,4.70
2022-08-03T10:01:23.725Z,3.93
2022-08-03T10:04:30.336Z,3.33
2022-08-03T10:07:46.139Z,3.60
2022-08-03T10:10:53.982Z,3.90
2022-08-03T10:14:01.075Z,3.63
2022-08-03T10:17:05.040Z,4.00
2022-08-03T10:20:11.317Z,4.13
2022-08-03T10:23:16.167Z,4.30
2022-08-03T10:26:23.703Z,3.70
2022-08-03T10:29:30.328Z,3.80
2022-08-03T10:32:37.275Z,3.87
2022-08-03T10:35:43.546Z,3.87
2022-08-03T10:38:52.686Z,3.77
2022-08-03T10:41:58.332Z,3.30
2022-08-03T10:45:06.645Z,3.67
2022-08-03T10:48:10.812Z,3.00
2022-08-03T10:51:15.689Z,3.50
2022-08-03T10:55:03.104Z,3.80
2022-08-03T10:58:11.266Z,4.40
2022-08-03T11:01:15.114Z,5.30
2022-08-03T11:04:20.076Z,5.10
2022-08-03T11:07:26.461Z,4.67
2022-08-03T11:10:32.613Z,5.23
2022-08-03T11:13:35.790Z,5.70
2022-08-03T11:16:41.015Z,5.53
2022-08-03T11:19:57.466Z,4.93
2022-08-03T11:23:03.065Z,6.00
2022-08-03T11:26:13.791Z,5.17
2022-08-03T11:29:29.296Z,4.87
2022-08-03T11:33:01.419Z,5.00
2022-08-03T11:36:04.879Z,4.20
2022-08-03T11:39:16.886Z,3.50
2022-08-03T11:42:47.344Z,2.80
2022-08-03T11:45:59.909Z,3.00
2022-08-03T11:49:10.254Z,3.47
2022-08-03T11:52:14.416Z,4.87
2022-08-03T11:55:22.069Z,5.73
2022-08-03T11:58:58.315Z,5.40
2022-08-03T12:01:48.977Z,5.73
2022-08-03T12:04:52.653Z,5.30
2022-08-03T12:08:03.150Z,5.40
2022-08-03T12:11:13.017Z,4.40
2022-08-03T12:14:50.128Z,3.60
2022-08-03T12:17:42.457Z,5.20
2022-08-03T12:20:46.514Z,4.30
2022-08-03T12:23:49.596Z,4.40
2022-08-03T12:26:58.536Z,5.10
2022-08-03T12:30:03.325Z,4.80
2022-08-03T12:33:17.298Z,4.07
2022-08-03T12:36:22.120Z,4.17
2022-08-03T12:39:27.998Z,3.70
2022-08-03T12:42:34.943Z,3.40
2022-08-03T12:45:38.441Z,3.43
2022-08-03T12:49:01.145Z,4.20
2022-08-03T12:52:07.627Z,4.07
2022-08-03T12:55:21.824Z,4.10
2022-08-03T12:58:35.015Z,3.57
2022-08-03T13:01:55.211Z,4.03
2022-08-03T13:05:00.231Z,3.97
2022-08-03T13:08:03.382Z,4.07
2022-08-03T13:11:20.499Z,3.90
2022-08-03T13:14:24.994Z,4.53
2022-08-03T13:17:30.270Z,3.63
2022-08-03T13:20:33.880Z,3.43
2022-08-03T13:23:37.085Z,3.00
2022-08-03T13:26:40.138Z,3.17
2022-08-03T13:29:44.895Z,3.17
2022-08-03T13:32:48.018Z,3.40
2022-08-03T13:35:51.115Z,3.27
2022-08-03T13:38:54.603Z,3.43
2022-08-03T13:41:58.783Z,3.00
2022-08-03T13:45:04.234Z,2.50
2022-08-03T13:48:07.790Z,3.37
2022-08-03T13:51:22.255Z,3.10
2022-08-03T13:54:26.220Z,2.90
2022-08-03T13:58:05.918Z,2.90
2022-08-03T14:00:54.129Z,2.97
2022-08-03T14:03:58.373Z,2.90
2022-08-03T14:07:04.100Z,3.53
2022-08-03T14:10:08.475Z,3.17
2022-08-03T14:13:12.479Z,3.37
2022-08-03T14:16:17.142Z,3.47
2022-08-03T14:19:21.357Z,3.00
2022-08-03T14:22:28.777Z,3.07
2022-08-03T14:25:43.024Z,3.27
2022-08-03T14:28:46.907Z,3.40
2022-08-03T14:32:12.051Z,3.10
2022-08-03T14:35:14.611Z,3.40
2022-08-03T14:38:18.379Z,3.40
2022-08-03T14:41:21.440Z,3.73
2022-08-03T14:44:24.557Z,3.40
2022-08-03T14:47:29.024Z,3.33
2022-08-03T14:50:41.926Z,3.63
2022-08-03T14:53:48.777Z,4.17
2022-08-03T14:56:51.957Z,4.20
2022-08-03T14:59:58.189Z,3.73
2022-08-03T15:03:02.954Z,3.87
2022-08-03T15:06:06.153Z,4.33
2022-08-03T15:09:23.662Z,4.63
2022-08-03T15:12:27.196Z,4.63
2022-08-03T15:15:30.460Z,4.20
2022-08-03T15:18:34.953Z,4.57
2022-08-03T15:21:46.979Z,4.70
2022-08-03T15:24:51.072Z,4.30
2022-08-03T15:28:03.445Z,4.57
2022-08-03T15:31:07.722Z,4.30
2022-08-03T15:34:12.863Z,4.40
2022-08-03T15:37:16.616Z,3.97
2022-08-03T15:40:19.931Z,4.13
2022-08-03T15:43:23.076Z,4.90
2022-08-03T15:46:29.635Z,4.57
2022-08-03T15:49:34.526Z,4.70
2022-08-03T15:52:37.592Z,4.47
2022-08-03T15:55:40.661Z,4.50
2022-08-03T15:59:04.173Z,5.23
2022-08-03T16:02:07.106Z,5.77
2022-08-03T16:05:11.791Z,7.53
2022-08-03T16:08:14.879Z,6.13
2022-08-03T16:11:18.008Z,4.43
2022-08-03T16:14:32.518Z,4.17
2022-08-03T16:17:42.364Z,3.80
2022-08-03T16:20:48.359Z,3.93
2022-08-03T16:23:51.591Z,4.37
2022-08-03T16:26:54.710Z,3.40
2022-08-03T16:29:57.802Z,3.23
2022-08-03T16:33:00.919Z,3.30
2022-08-03T16:36:05.603Z,2.73
2022-08-03T16:39:08.731Z,2.73
2022-08-03T16:42:11.905Z,3.10
2022-08-03T16:45:15.756Z,2.63
2022-08-03T16:48:20.064Z,3.00
2022-08-03T16:51:24.546Z,3.50
2022-08-03T16:54:43.411Z,2.70
2022-08-03T16:57:59.069Z,2.63
2022-08-03T17:01:24.430Z,3.17
2022-08-03T17:04:27.113Z,2.97
2022-08-03T17:07:33.687Z,4.47
2022-08-03T17:10:37.190Z,3.10
2022-08-03T17:13:41.307Z,4.33
2022-08-03T17:16:52.049Z,2.90
2022-08-03T17:19:57.619Z,3.20
2022-08-03T17:23:35.189Z,3.80
2022-08-03T17:26:43.295Z,3.57
2022-08-03T17:29:50.802Z,4.00
2022-08-03T17:32:57.536Z,3.90
2022-08-03T17:36:01.324Z,4.67
2022-08-03T17:39:07.655Z,4.40
2022-08-03T17:42:29.216Z,4.63
2022-08-03T17:45:55.079Z,4.60
2022-08-03T17:48:58.155Z,4.60
2022-08-03T17:52:04.101Z,5.43
2022-08-03T17:55:58.553Z,6.03
2022-08-03T17:58:54.772Z,5.80
2022-08-03T18:02:30.437Z,6.47
2022-08-03T18:06:10.723Z,4.93
2022-08-03T18:09:05.341Z,5.20
2022-08-03T18:12:30.260Z,5.07
2022-08-03T18:15:38.940Z,4.70
2022-08-03T18:18:43.721Z,5.33
2022-08-03T18:22:03.498Z,3.70
2022-08-03T18:25:09.710Z,3.93
2022-08-03T18:28:19.591Z,3.93
2022-08-03T18:31:59.802Z,4.10
2022-08-03T18:34:53.783Z,3.90
2022-08-03T18:38:01.058Z,5.73
2022-08-03T18:41:07.042Z,3.67
2022-08-03T18:44:53.358Z,3.43
2022-08-03T18:47:54.969Z,3.20
2022-08-03T18:51:03.045Z,3.43
2022-08-03T18:54:59.128Z,3.50
2022-08-03T18:57:46.404Z,3.00
2022-08-03T19:00:58.428Z,3.10
2022-08-03T19:04:10.465Z,3.70
2022-08-03T19:07:23.397Z,3.80
2022-08-03T19:10:31.487Z,4.00
2022-08-03T19:13:41.569Z,3.30
2022-08-03T19:16:49.824Z,3.40
2022-08-03T19:19:53.608Z,3.80
2022-08-03T19:22:58.440Z,4.43
2022-08-03T19:26:04.699Z,4.33
2022-08-03T19:29:59.163Z,3.90
2022-08-03T19:32:54.933Z,3.80
2022-08-03T19:35:59.157Z,3.43
2022-08-03T19:39:09.009Z,3.30
2022-08-03T19:42:20.414Z,3.30
2022-08-03T19:46:04.417Z,3.13
2022-08-03T19:49:02.788Z,3.60
2022-08-03T19:52:08.024Z,3.17
2022-08-03T19:55:12.736Z,3.63
2022-08-03T19:58:24.353Z,3.20
2022-08-03T20:01:32.224Z,3.90
2022-08-03T20:04:56.008Z,3.70
2022-08-03T20:08:02.222Z,3.53
2022-08-03T20:11:05.499Z,3.60
2022-08-03T20:14:11.657Z,4.23
2022-08-03T20:17:21.130Z,4.10
2022-08-03T20:20:28.612Z,5.00
2022-08-03T20:23:39.187Z,4.27
2022-08-03T20:27:05.191Z,4.10
2022-08-03T20:30:12.169Z,4.03
2022-08-03T20:33:18.705Z,4.07
2022-08-03T20:36:23.972Z,3.90
2022-08-03T20:39:30.236Z,5.00
2022-08-03T20:42:34.890Z,4.30
2022-08-03T20:46:00.075Z,4.50
2022-08-03T20:49:03.790Z,4.37
2022-08-03T20:52:09.004Z,3.63
2022-08-03T20:55:47.865Z,3.83
2022-08-03T20:58:50.291Z,4.93
2022-08-03T21:01:54.026Z,6.20
2022-08-03T21:04:59.045Z,4.80
2022-08-03T21:08:12.514Z,4.03
2022-08-03T21:11:19.988Z,3.63
2022-08-03T21:14:32.946Z,3.83
2022-08-03T21:17:43.441Z,3.60
2022-08-03T21:20:48.428Z,4.00
2022-08-03T21:23:54.656Z,4.30
2022-08-03T21:26:59.782Z,4.30
2022-08-03T21:30:05.149Z,4.30
2022-08-03T21:33:08.245Z,4.20
2022-08-03T21:36:12.130Z,3.47
2022-08-03T21:39:16.778Z,3.47
2022-08-03T21:42:21.105Z,3.50
2022-08-03T21:45:24.559Z,3.93
2022-08-03T21:48:29.208Z,3.70
2022-08-03T21:51:34.058Z,3.67
2022-08-03T21:54:42.784Z,3.50
2022-08-03T21:57:52.167Z,3.43
2022-08-03T22:00:55.886Z,3.30
2022-08-03T22:03:59.762Z,3.30
2022-08-03T22:07:03.510Z,4.00
2022-08-03T22:10:08.802Z,3.17
2022-08-03T22:13:12.775Z,3.23
2022-08-03T22:16:17.147Z,3.90
2022-08-03T22:19:20.243Z,3.90
2022-08-03T22:22:24.325Z,3.20
2022-08-03T22:25:31.177Z,3.40
2022-08-03T22:28:35.159Z,3.43
2022-08-03T22:31:58.513Z,3.83
2022-08-03T22:35:05.989Z,3.70
2022-08-03T22:38:12.221Z,3.10
2022-08-03T22:41:19.698Z,3.20
2022-08-03T22:44:23.457Z,3.63
2022-08-03T22:47:26.673Z,3.20
2022-08-03T22:50:31.234Z,3.10
2022-08-03T22:53:37.426Z,3.30
2022-08-03T22:56:42.582Z,3.13
2022-08-03T22:59:47.363Z,3.77
2022-08-03T23:02:52.239Z,3.27
2022-08-03T23:06:01.532Z,3.23
2022-08-03T23:09:09.141Z,3.10
2022-08-03T23:12:15.962Z,3.57
2022-08-03T23:15:19.345Z,3.27
2022-08-03T23:18:24.007Z,3.40
2022-08-03T23:21:53.835Z,3.30
2022-08-03T23:24:53.007Z,3.50
2022-08-03T23:28:05.693Z,2.70
2022-08-03T23:31:09.670Z,3.30
2022-08-03T23:34:32.051Z,3.10
2022-08-03T23:38:10.762Z,3.77
2022-08-03T23:41:00.843Z,3.23
2022-08-03T23:44:05.855Z,3.43
2022-08-03T23:47:08.998Z,3.67
2022-08-03T23:50:12.610Z,3.83
2022-08-03T23:53:22.304Z,3.67
2022-08-03T23:56:33.395Z,4.23
2022-08-03T23:59:45.359Z,4.20
